createdAt,value
2018-08-19T00:00:56.426Z,23.70
2018-08-19T00:03:25.750Z,23.70
2018-08-19T00:05:55.027Z,23.60
2018-08-19T00:08:24.405Z,23.60
2018-08-19T00:11:00.961Z,23.60
2018-08-19T00:13:30.396Z,23.60
2018-08-19T00:15:59.791Z,23.60
2018-08-19T00:18:29.050Z,23.50
2018-08-19T00:20:58.509Z,23.60
2018-08-19T00:23:34.678Z,23.60
2018-08-19T00:26:04.050Z,23.60
2018-08-19T00:28:33.269Z,23.40
2018-08-19T00:31:05.142Z,23.30
2018-08-19T00:33:34.651Z,23.30
2018-08-19T00:36:29.305Z,23.10
2018-08-19T00:38:58.533Z,23.20
2018-08-19T00:41:27.743Z,23.40
2018-08-19T00:43:58.012Z,23.40
2018-08-19T00:46:30.021Z,23.50
2018-08-19T00:49:00.240Z,23.50
2018-08-19T00:51:29.696Z,23.30
2018-08-19T00:53:59.019Z,23.20
2018-08-19T00:56:28.237Z,23.40
2018-08-19T00:58:57.559Z,23.40
2018-08-19T01:01:33.703Z,23.40
2018-08-19T01:04:03.353Z,23.30
2018-08-19T01:06:40.553Z,23.30
2018-08-19T01:09:10.594Z,23.20
2018-08-19T01:11:46.169Z,23.20
2018-08-19T01:14:15.673Z,22.90
2018-08-19T01:16:45.006Z,22.70
2018-08-19T01:19:15.229Z,22.70
2018-08-19T01:21:46.855Z,22.90
2018-08-19T01:24:16.656Z,23.00
2018-08-19T01:26:45.882Z,22.90
2018-08-19T01:29:15.204Z,23.00
2018-08-19T01:31:44.348Z,23.10
2018-08-19T01:34:14.293Z,23.00
2018-08-19T01:36:43.624Z,23.00
2018-08-19T01:39:13.883Z,23.10
2018-08-19T01:41:43.082Z,22.90
2018-08-19T01:44:13.813Z,22.80
2018-08-19T01:46:45.967Z,22.90
2018-08-19T01:49:15.219Z,22.90
2018-08-19T01:51:44.848Z,22.80
2018-08-19T01:54:19.297Z,22.90
2018-08-19T01:57:00.967Z,22.90
2018-08-19T01:59:34.631Z,22.80
2018-08-19T02:02:06.072Z,22.50
2018-08-19T02:05:08.330Z,22.60
2018-08-19T02:07:37.687Z,22.30
2018-08-19T02:10:08.778Z,22.20
2018-08-19T02:12:38.864Z,22.10
2018-08-19T02:15:09.750Z,21.90
2018-08-19T02:17:45.249Z,21.90
2018-08-19T02:20:14.394Z,21.70
2018-08-19T02:22:47.803Z,21.80
2018-08-19T02:25:17.786Z,21.80
2018-08-19T02:27:48.752Z,22.00
2018-08-19T02:30:17.958Z,22.00
2018-08-19T02:32:47.129Z,22.20
2018-08-19T02:35:16.368Z,22.30
2018-08-19T02:37:45.569Z,22.30
2018-08-19T02:40:19.046Z,22.40
2018-08-19T02:42:48.319Z,22.40
2018-08-19T02:45:17.536Z,21.80
2018-08-19T02:47:46.700Z,21.80
2018-08-19T02:50:15.911Z,21.90
2018-08-19T02:52:45.114Z,22.00
2018-08-19T02:55:14.305Z,22.00
2018-08-19T02:57:43.494Z,22.10
2018-08-19T03:00:12.928Z,22.10
2018-08-19T03:02:43.101Z,21.90
2018-08-19T03:05:14.787Z,21.70
2018-08-19T03:07:44.193Z,21.80
2018-08-19T03:10:15.440Z,21.90
2018-08-19T03:12:45.060Z,21.70
2018-08-19T03:15:15.550Z,21.70
2018-08-19T03:17:48.280Z,21.80
2018-08-19T03:20:17.473Z,22.00
2018-08-19T03:22:46.742Z,22.00
2018-08-19T03:25:15.978Z,22.00
2018-08-19T03:27:45.970Z,22.10
2018-08-19T03:30:16.105Z,22.00
2018-08-19T03:32:50.882Z,21.90
2018-08-19T03:35:20.953Z,22.00
2018-08-19T03:37:53.053Z,22.00
2018-08-19T03:40:24.853Z,22.00
2018-08-19T03:42:54.350Z,21.90
2018-08-19T03:45:23.552Z,21.90
2018-08-19T03:47:53.278Z,21.90
2018-08-19T03:50:26.431Z,21.90
2018-08-19T03:52:56.650Z,21.80
2018-08-19T03:55:30.983Z,21.90
2018-08-19T03:58:02.263Z,21.90
2018-08-19T04:00:34.793Z,21.90
2018-08-19T04:03:11.457Z,21.90
2018-08-19T04:05:45.630Z,21.90
2018-08-19T04:08:15.904Z,21.90
2018-08-19T04:10:46.134Z,21.50
2018-08-19T04:13:28.609Z,21.50
2018-08-19T04:15:59.222Z,21.50
2018-08-19T04:18:33.865Z,21.80
2018-08-19T04:21:05.087Z,21.70
2018-08-19T04:23:35.118Z,21.80
2018-08-19T04:26:05.495Z,21.80
2018-08-19T04:28:36.282Z,21.80
2018-08-19T04:31:25.289Z,21.90
2018-08-19T04:33:54.948Z,21.90
2018-08-19T04:36:25.286Z,21.80
2018-08-19T04:38:54.598Z,21.80
2018-08-19T04:41:23.761Z,21.80
2018-08-19T04:43:53.980Z,21.90
2018-08-19T04:46:23.178Z,21.90
2018-08-19T04:48:52.634Z,21.90
2018-08-19T04:51:21.938Z,21.90
2018-08-19T04:53:51.245Z,21.90
2018-08-19T04:56:21.108Z,21.90
2018-08-19T04:58:50.260Z,22.00
2018-08-19T05:01:19.502Z,21.90
2018-08-19T05:03:48.653Z,22.00
2018-08-19T05:06:17.919Z,22.10
2018-08-19T05:08:47.106Z,22.20
2018-08-19T05:11:16.447Z,22.20
2018-08-19T05:13:45.647Z,22.10
2018-08-19T05:16:14.881Z,22.20
2018-08-19T05:18:52.706Z,22.20
2018-08-19T05:21:25.229Z,22.20
2018-08-19T05:23:54.457Z,22.20
2018-08-19T05:26:23.664Z,22.20
2018-08-19T05:29:05.354Z,22.30
2018-08-19T05:31:38.502Z,22.40
2018-08-19T05:34:11.542Z,22.50
2018-08-19T05:36:40.683Z,22.60
2018-08-19T05:39:09.941Z,22.60
2018-08-19T05:41:39.223Z,22.60
2018-08-19T05:44:08.387Z,22.40
2018-08-19T05:46:37.583Z,22.30
2018-08-19T05:49:06.751Z,22.20
2018-08-19T05:51:35.923Z,22.20
2018-08-19T05:54:05.211Z,22.30
2018-08-19T05:56:34.359Z,22.40
2018-08-19T05:59:03.591Z,22.30
2018-08-19T06:01:32.846Z,22.40
2018-08-19T06:04:02.015Z,22.40
2018-08-19T06:06:31.176Z,22.50
2018-08-19T06:09:00.318Z,22.60
2018-08-19T06:11:29.540Z,22.70
2018-08-19T06:13:58.717Z,22.80
2018-08-19T06:16:27.934Z,22.80
2018-08-19T06:18:57.142Z,22.80
2018-08-19T06:21:26.364Z,22.80
2018-08-19T06:23:55.538Z,22.80
2018-08-19T06:26:28.996Z,22.80
2018-08-19T06:28:58.200Z,22.90
2018-08-19T06:31:27.405Z,22.90
2018-08-19T06:33:56.660Z,22.90
2018-08-19T06:36:26.011Z,22.90
2018-08-19T06:38:55.183Z,22.90
2018-08-19T06:41:24.419Z,22.90
2018-08-19T06:43:53.675Z,23.00
2018-08-19T06:46:22.903Z,22.90
2018-08-19T06:48:52.281Z,23.00
2018-08-19T06:51:21.554Z,23.30
2018-08-19T06:53:50.710Z,23.50
2018-08-19T06:56:19.909Z,23.50
2018-08-19T06:58:49.064Z,23.70
2018-08-19T07:01:18.261Z,24.00
2018-08-19T07:03:51.763Z,24.20
2018-08-19T07:06:20.882Z,24.60
2018-08-19T07:08:50.072Z,25.20
2018-08-19T07:11:19.278Z,25.00
2018-08-19T07:13:49.792Z,25.40
2018-08-19T07:16:19.911Z,25.70
2018-08-19T07:18:49.210Z,25.30
2018-08-19T07:21:18.452Z,25.40
2018-08-19T07:23:47.674Z,25.60
2018-08-19T07:26:16.820Z,25.80
2018-08-19T07:28:46.024Z,25.90
2018-08-19T07:31:15.214Z,26.00
2018-08-19T07:33:44.434Z,26.40
2018-08-19T07:36:13.626Z,26.40
2018-08-19T07:38:42.953Z,27.10
2018-08-19T07:41:12.283Z,28.00
2018-08-19T07:43:41.498Z,28.40
2018-08-19T07:46:10.663Z,29.10
2018-08-19T07:48:39.917Z,30.00
2018-08-19T07:51:09.258Z,30.20
2018-08-19T07:53:38.507Z,29.80
2018-08-19T07:56:07.779Z,29.90
2018-08-19T07:58:40.795Z,29.30
2018-08-19T08:01:10.103Z,29.10
2018-08-19T08:03:39.465Z,28.60
2018-08-19T08:06:08.739Z,28.60
2018-08-19T08:08:38.063Z,28.70
2018-08-19T08:11:07.280Z,28.90
2018-08-19T08:13:36.486Z,29.00
2018-08-19T08:16:05.636Z,29.10
2018-08-19T08:18:34.931Z,29.40
2018-08-19T08:21:09.783Z,30.30
2018-08-19T08:23:38.951Z,31.30
2018-08-19T08:26:08.326Z,31.50
2018-08-19T08:28:37.504Z,31.80
2018-08-19T08:31:07.226Z,31.70
2018-08-19T08:33:38.469Z,31.10
2018-08-19T08:36:09.801Z,30.90
2018-08-19T08:38:39.451Z,30.60
2018-08-19T08:41:08.643Z,30.40
2018-08-19T08:43:38.004Z,30.30
2018-08-19T08:46:07.218Z,29.70
2018-08-19T08:48:36.458Z,29.60
2018-08-19T08:51:05.650Z,29.00
2018-08-19T08:53:37.817Z,28.50
2018-08-19T08:56:07.599Z,28.10
2018-08-19T08:58:36.824Z,27.70
2018-08-19T09:01:06.013Z,27.40
2018-08-19T09:03:35.214Z,27.20
2018-08-19T09:06:08.930Z,27.00
2018-08-19T09:08:38.090Z,27.10
2018-08-19T09:11:07.314Z,27.20
2018-08-19T09:13:36.467Z,27.30
2018-08-19T09:16:05.692Z,27.30
2018-08-19T09:18:34.851Z,27.20
2018-08-19T09:21:04.109Z,27.20
2018-08-19T09:23:33.343Z,27.20
2018-08-19T09:26:02.644Z,27.10
2018-08-19T09:28:31.792Z,26.90
2018-08-19T09:31:00.979Z,26.90
2018-08-19T09:33:30.494Z,26.80
2018-08-19T09:35:59.688Z,26.90
2018-08-19T09:38:28.889Z,27.00
2018-08-19T09:40:58.073Z,27.20
2018-08-19T09:43:27.285Z,27.00
2018-08-19T09:45:56.535Z,27.10
2018-08-19T09:48:25.716Z,27.20
2018-08-19T09:50:58.986Z,27.10
2018-08-19T09:53:28.103Z,27.00
2018-08-19T09:56:02.422Z,27.10
2018-08-19T09:58:31.562Z,27.30
2018-08-19T10:01:06.278Z,27.50
2018-08-19T10:03:35.563Z,27.70
2018-08-19T10:06:04.838Z,27.80
2018-08-19T10:08:34.106Z,27.70
2018-08-19T10:11:03.320Z,27.80
2018-08-19T10:13:32.523Z,28.00
2018-08-19T10:16:01.661Z,27.80
2018-08-19T10:18:30.832Z,27.60
2018-08-19T10:21:04.101Z,27.60
2018-08-19T10:23:33.289Z,27.70
2018-08-19T10:26:02.457Z,27.70
2018-08-19T10:28:31.585Z,27.60
2018-08-19T10:31:00.926Z,27.70
2018-08-19T10:33:30.109Z,27.80
2018-08-19T10:35:59.781Z,27.80
2018-08-19T10:38:28.945Z,27.90
2018-08-19T10:41:03.397Z,28.00
2018-08-19T10:43:32.580Z,28.00
2018-08-19T10:46:01.779Z,27.90
2018-08-19T10:48:30.928Z,27.90
2018-08-19T10:51:02.542Z,27.80
2018-08-19T10:53:31.794Z,27.80
2018-08-19T10:56:02.237Z,27.70
2018-08-19T10:58:31.466Z,27.70
2018-08-19T11:01:00.598Z,27.70
2018-08-19T11:03:30.678Z,27.80
2018-08-19T11:05:59.916Z,27.90
2018-08-19T11:08:29.133Z,28.00
2018-08-19T11:10:59.606Z,28.30
2018-08-19T11:13:28.810Z,28.30
2018-08-19T11:15:58.861Z,28.30
2018-08-19T11:18:40.399Z,28.20
2018-08-19T11:21:14.965Z,28.10
2018-08-19T11:23:45.419Z,28.00
2018-08-19T11:26:14.691Z,27.80
2018-08-19T11:28:49.288Z,27.70
2018-08-19T11:31:25.759Z,27.70
2018-08-19T11:33:56.272Z,27.90
2018-08-19T11:36:32.843Z,28.20
2018-08-19T11:39:02.036Z,28.30
2018-08-19T11:41:32.706Z,28.30
2018-08-19T11:44:10.517Z,28.30
2018-08-19T11:46:39.713Z,28.30
2018-08-19T11:49:08.927Z,28.40
2018-08-19T11:51:48.549Z,28.40
2018-08-19T11:54:18.864Z,28.30
2018-08-19T11:56:57.353Z,28.30
2018-08-19T11:59:31.883Z,28.30
2018-08-19T12:02:01.194Z,28.30
2018-08-19T12:04:30.499Z,28.30
2018-08-19T12:06:59.767Z,28.30
2018-08-19T12:09:28.931Z,28.40
2018-08-19T12:11:58.132Z,28.40
2018-08-19T12:14:27.581Z,28.50
2018-08-19T12:16:58.085Z,28.60
2018-08-19T12:19:28.350Z,28.60
2018-08-19T12:22:01.540Z,28.70
2018-08-19T12:24:35.410Z,28.70
2018-08-19T12:27:06.290Z,28.70
2018-08-19T12:29:36.581Z,28.80
2018-08-19T12:32:26.804Z,28.90
2018-08-19T12:35:01.717Z,29.00
2018-08-19T12:37:32.267Z,29.00
2018-08-19T12:40:01.743Z,29.00
2018-08-19T12:42:31.820Z,29.10
2018-08-19T12:45:07.607Z,29.10
2018-08-19T12:47:37.108Z,29.10
2018-08-19T12:50:13.916Z,29.00
2018-08-19T12:52:43.118Z,29.00
2018-08-19T12:55:14.903Z,29.00
2018-08-19T12:57:44.671Z,28.90
2018-08-19T13:00:18.240Z,28.90
2018-08-19T13:02:49.333Z,28.90
2018-08-19T13:05:22.098Z,28.90
2018-08-19T13:07:51.514Z,28.90
2018-08-19T13:10:21.001Z,28.80
2018-08-19T13:12:56.654Z,28.80
2018-08-19T13:15:28.000Z,28.90
2018-08-19T13:17:57.925Z,28.90
2018-08-19T13:20:27.313Z,29.00
2018-08-19T13:23:04.257Z,29.00
2018-08-19T13:25:34.009Z,28.90
2018-08-19T13:28:03.419Z,29.00
2018-08-19T13:30:32.638Z,29.00
2018-08-19T13:33:02.038Z,29.00
2018-08-19T13:35:31.246Z,28.90
2018-08-19T13:38:00.666Z,28.80
2018-08-19T13:40:30.201Z,28.90
2018-08-19T13:42:59.568Z,29.00
2018-08-19T13:45:28.813Z,28.80
2018-08-19T13:47:57.998Z,28.80
2018-08-19T13:50:27.225Z,28.90
2018-08-19T13:52:56.361Z,29.00
2018-08-19T13:55:25.510Z,29.00
2018-08-19T13:57:54.655Z,28.90
2018-08-19T14:00:28.098Z,29.00
2018-08-19T14:02:57.258Z,29.00
2018-08-19T14:05:26.449Z,29.00
2018-08-19T14:07:55.624Z,28.90
2018-08-19T14:10:24.792Z,29.00
2018-08-19T14:12:53.981Z,29.20
2018-08-19T14:15:23.135Z,29.20
2018-08-19T14:17:52.306Z,29.30
2018-08-19T14:20:21.656Z,29.30
2018-08-19T14:22:50.877Z,29.20
2018-08-19T14:25:20.033Z,29.30
2018-08-19T14:27:49.174Z,29.40
2018-08-19T14:30:18.617Z,29.60
2018-08-19T14:32:48.157Z,29.50
2018-08-19T14:35:17.311Z,29.50
2018-08-19T14:37:46.443Z,29.40
2018-08-19T14:40:17.405Z,29.20
2018-08-19T14:42:46.689Z,29.30
2018-08-19T14:45:15.940Z,29.30
2018-08-19T14:47:45.152Z,29.10
2018-08-19T14:50:17.388Z,29.20
2018-08-19T14:52:46.562Z,29.20
2018-08-19T14:55:15.761Z,29.30
2018-08-19T14:57:44.875Z,29.40
2018-08-19T15:00:15.701Z,29.30
2018-08-19T15:02:44.849Z,29.10
2018-08-19T15:05:18.671Z,29.00
2018-08-19T15:07:48.091Z,29.00
2018-08-19T15:10:18.806Z,29.00
2018-08-19T15:12:48.033Z,28.90
2018-08-19T15:15:17.288Z,29.00
2018-08-19T15:17:50.510Z,29.00
2018-08-19T15:20:24.776Z,29.00
2018-08-19T15:23:04.455Z,29.00
2018-08-19T15:25:34.584Z,29.00
2018-08-19T15:28:04.563Z,29.00
2018-08-19T15:30:33.755Z,29.00
2018-08-19T15:33:02.985Z,29.10
2018-08-19T15:35:32.026Z,29.10
2018-08-19T15:38:01.862Z,29.10
2018-08-19T15:40:49.900Z,29.10
2018-08-19T15:43:18.994Z,29.10
2018-08-19T15:45:48.156Z,29.10
2018-08-19T15:48:18.273Z,29.00
2018-08-19T15:50:48.487Z,29.00
2018-08-19T15:53:17.802Z,29.00
2018-08-19T15:55:47.097Z,28.90
2018-08-19T15:58:16.301Z,28.90
2018-08-19T16:00:45.490Z,29.00
2018-08-19T16:03:14.598Z,29.00
2018-08-19T16:05:43.775Z,29.00
2018-08-19T16:08:12.920Z,28.90
2018-08-19T16:10:42.947Z,29.00
2018-08-19T16:13:12.456Z,28.90
2018-08-19T16:15:41.654Z,28.90
2018-08-19T16:18:10.882Z,28.90
2018-08-19T16:20:40.593Z,28.90
2018-08-19T16:23:09.749Z,28.90
2018-08-19T16:25:38.889Z,28.80
2018-08-19T16:28:08.040Z,28.90
2018-08-19T16:30:37.234Z,28.90
2018-08-19T16:33:06.377Z,28.90
2018-08-19T16:35:35.534Z,28.90
2018-08-19T16:38:04.838Z,28.80
2018-08-19T16:40:33.985Z,28.80
2018-08-19T16:43:03.118Z,28.80
2018-08-19T16:45:32.324Z,28.70
2018-08-19T16:48:01.565Z,28.70
2018-08-19T16:50:30.890Z,28.70
2018-08-19T16:52:59.974Z,28.60
2018-08-19T16:55:29.290Z,28.60
2018-08-19T16:57:58.473Z,28.50
2018-08-19T17:00:27.655Z,28.50
2018-08-19T17:02:57.046Z,28.60
2018-08-19T17:05:30.705Z,28.50
2018-08-19T17:07:59.936Z,28.50
2018-08-19T17:10:29.886Z,28.50
2018-08-19T17:12:59.226Z,28.50
2018-08-19T17:15:29.023Z,28.40
2018-08-19T17:17:58.414Z,28.40
2018-08-19T17:20:27.768Z,28.40
2018-08-19T17:22:57.103Z,28.40
2018-08-19T17:25:26.378Z,28.30
2018-08-19T17:27:55.748Z,28.30
2018-08-19T17:30:25.026Z,28.20
2018-08-19T17:33:07.065Z,28.20
2018-08-19T17:35:36.438Z,28.20
2018-08-19T17:38:05.655Z,28.10
2018-08-19T17:40:34.905Z,28.10
2018-08-19T17:43:04.165Z,28.10
2018-08-19T17:45:33.369Z,28.00
2018-08-19T17:48:02.612Z,28.00
2018-08-19T17:50:31.753Z,28.00
2018-08-19T17:53:02.297Z,27.90
2018-08-19T17:55:31.496Z,27.90
2018-08-19T17:58:00.860Z,27.80
2018-08-19T18:00:30.094Z,27.80
2018-08-19T18:02:59.332Z,27.70
2018-08-19T18:05:28.574Z,27.70
2018-08-19T18:07:57.846Z,27.60
2018-08-19T18:10:27.142Z,27.60
2018-08-19T18:12:56.346Z,27.50
2018-08-19T18:15:25.631Z,27.50
2018-08-19T18:18:00.342Z,27.40
2018-08-19T18:20:34.374Z,27.40
2018-08-19T18:23:04.503Z,27.30
2018-08-19T18:25:33.757Z,27.30
2018-08-19T18:28:11.019Z,27.30
2018-08-19T18:30:40.189Z,27.20
2018-08-19T18:33:09.442Z,27.10
2018-08-19T18:35:38.585Z,27.20
2018-08-19T18:38:17.983Z,27.20
2018-08-19T18:40:47.536Z,27.20
2018-08-19T18:43:16.808Z,27.10
2018-08-19T18:45:46.091Z,27.10
2018-08-19T18:48:16.189Z,27.00
2018-08-19T18:50:45.396Z,27.00
2018-08-19T18:53:14.723Z,26.90
2018-08-19T18:55:43.867Z,26.80
2018-08-19T18:58:13.214Z,26.80
2018-08-19T19:00:48.201Z,26.80
2018-08-19T19:03:17.783Z,26.70
2018-08-19T19:05:47.090Z,26.70
2018-08-19T19:08:18.498Z,26.70
2018-08-19T19:11:00.312Z,26.60
2018-08-19T19:13:29.715Z,26.60
2018-08-19T19:15:59.038Z,26.60
2018-08-19T19:18:28.197Z,26.60
2018-08-19T19:21:02.748Z,26.60
2018-08-19T19:23:36.547Z,26.60
2018-08-19T19:26:06.673Z,26.60
2018-08-19T19:28:36.459Z,26.60
2018-08-19T19:31:11.416Z,26.60
2018-08-19T19:33:40.996Z,26.50
2018-08-19T19:36:15.697Z,26.40
2018-08-19T19:38:50.395Z,26.30
2018-08-19T19:41:25.356Z,26.30
2018-08-19T19:43:54.742Z,26.20
2018-08-19T19:46:24.570Z,26.20
2018-08-19T19:48:53.843Z,26.10
2018-08-19T19:51:22.985Z,26.20
2018-08-19T19:53:52.105Z,26.20
2018-08-19T19:56:21.441Z,26.20
2018-08-19T19:58:51.042Z,26.40
2018-08-19T20:01:20.266Z,26.40
2018-08-19T20:03:55.845Z,26.30
2018-08-19T20:06:25.273Z,26.20
2018-08-19T20:08:58.072Z,26.00
2018-08-19T20:11:27.476Z,26.00
2018-08-19T20:14:00.232Z,25.80
2018-08-19T20:16:29.349Z,25.80
2018-08-19T20:18:58.625Z,25.80
2018-08-19T20:21:28.873Z,25.90
2018-08-19T20:23:59.111Z,26.00
2018-08-19T20:26:28.391Z,26.10
2018-08-19T20:28:59.938Z,26.00
2018-08-19T20:31:29.238Z,26.10
2018-08-19T20:33:58.542Z,26.10
2018-08-19T20:36:27.846Z,25.90
2018-08-19T20:38:57.040Z,25.80
2018-08-19T20:41:26.262Z,25.90
2018-08-19T20:43:55.403Z,25.80
2018-08-19T20:46:24.658Z,25.80
2018-08-19T20:48:53.929Z,25.80
2018-08-19T20:51:23.176Z,25.80
2018-08-19T20:53:52.470Z,25.80
2018-08-19T20:56:21.712Z,25.80
2018-08-19T20:58:51.037Z,25.70
2018-08-19T21:01:25.526Z,25.60
2018-08-19T21:03:54.784Z,25.60
2018-08-19T21:06:24.002Z,25.50
2018-08-19T21:08:53.218Z,25.40
2018-08-19T21:11:22.444Z,25.40
2018-08-19T21:13:51.653Z,25.30
2018-08-19T21:16:20.861Z,25.40
2018-08-19T21:18:50.095Z,25.40
2018-08-19T21:21:19.299Z,25.40
2018-08-19T21:23:49.255Z,25.30
2018-08-19T21:26:18.572Z,25.30
2018-08-19T21:29:08.279Z,25.20
2018-08-19T21:31:37.506Z,25.20
2018-08-19T21:34:06.782Z,25.10
2018-08-19T21:36:35.995Z,25.00
2018-08-19T21:39:07.539Z,25.00
2018-08-19T21:41:49.889Z,24.90
2018-08-19T21:44:19.822Z,24.80
2018-08-19T21:46:49.065Z,24.80
2018-08-19T21:49:18.761Z,24.70
2018-08-19T21:51:48.423Z,24.60
2018-08-19T21:54:19.533Z,24.50
2018-08-19T21:56:48.869Z,24.60
2018-08-19T21:59:22.845Z,24.70
2018-08-19T22:01:55.861Z,24.80
2018-08-19T22:04:26.260Z,24.80
2018-08-19T22:06:55.543Z,24.80
2018-08-19T22:09:31.343Z,24.80
2018-08-19T22:12:01.220Z,24.80
2018-08-19T22:14:31.176Z,24.80
2018-08-19T22:17:05.859Z,24.80
2018-08-19T22:19:35.127Z,24.80
2018-08-19T22:22:04.606Z,24.80
2018-08-19T22:24:33.902Z,24.70
2018-08-19T22:27:08.329Z,24.70
2018-08-19T22:29:37.568Z,24.70
2018-08-19T22:32:06.971Z,24.60
2018-08-19T22:34:36.593Z,24.60
2018-08-19T22:37:06.200Z,24.50
2018-08-19T22:39:35.490Z,24.50
2018-08-19T22:42:11.360Z,24.40
2018-08-19T22:44:40.735Z,24.40
2018-08-19T22:47:11.283Z,24.30
2018-08-19T22:49:40.738Z,24.20
2018-08-19T22:52:19.365Z,24.20
2018-08-19T22:54:51.287Z,24.20
2018-08-19T22:57:20.558Z,24.20
2018-08-19T22:59:49.787Z,24.20
2018-08-19T23:02:19.141Z,24.20
2018-08-19T23:04:48.385Z,24.20
2018-08-19T23:07:17.568Z,24.10
2018-08-19T23:09:46.754Z,24.10
2018-08-19T23:12:15.982Z,24.10
2018-08-19T23:14:56.367Z,24.00
2018-08-19T23:17:25.592Z,23.90
2018-08-19T23:19:54.774Z,23.80
2018-08-19T23:22:23.993Z,23.90
2018-08-19T23:24:53.186Z,23.80
2018-08-19T23:27:22.362Z,23.80
2018-08-19T23:29:52.457Z,23.80
2018-08-19T23:32:21.682Z,23.80
2018-08-19T23:34:50.948Z,23.80
2018-08-19T23:37:20.172Z,23.80
2018-08-19T23:39:49.379Z,23.80
2018-08-19T23:42:18.529Z,23.80
2018-08-19T23:44:47.745Z,23.80
2018-08-19T23:47:18.625Z,23.80
2018-08-19T23:49:47.842Z,23.70
2018-08-19T23:52:17.092Z,23.70
2018-08-19T23:54:46.360Z,23.70
2018-08-19T23:57:15.544Z,23.70
2018-08-19T23:59:46.545Z,23.70
